Arkport, New York
Current Conditions -  °F | °C
As of 6:54 PM on Saturday 25 Oct 2014 (Local Time) from KDSV Reporting Station
Clear Clear  
Wind Chill: 59°   Ceiling: Unl
Heat Index: 59°   Visibility: 10mi
Dew Point: 48°   Wind: 8mph
Humidity: 67%   Direction: 280°W
Pressure: 29.65"   Gusts: NA
Location:  42.39°N, 77.7°W
Report Text: KDSV 252254Z AUTO 28007KT 10SM CLR 15/09 A2965 RMK AO2 SLP049 T01500089
Loading
Personal Weather Stations






























Interactive Weather Map New forecast layout! Learn more

10-Day Weather Forecast

Advertisements
Track Severe Weather on mobile